Time;durP1;ratioP1;P1;durP2;ratioP2;P2;SDS_P1;SDS_P2;PMS_P1;PMS_P2;Temp;Humidity;BMP_temperature;BMP_pressure;BME280_temperature;BME280_humidity;BME280_pressure;Samples;Min_cycle;Max_cycle;Signal;HPM_P1;HPM_P2
2023/07/28 00:00:17;;;;;;;4.47;4.18;;;17.40;99.90;;;18.16;100.00;97221.19;10366855;28;20226;-81
2023/07/28 00:05:22;;;;;;;4.32;4.03;;;17.40;99.90;;;18.17;100.00;97224.63;10378656;28;20236;-80
2023/07/28 00:10:26;;;;;;;4.72;4.30;;;17.40;99.90;;;18.06;100.00;97221.00;10374852;28;20230;-81
2023/07/28 00:15:30;;;;;;;3.80;3.50;;;17.40;99.90;;;18.09;100.00;97224.53;10372260;28;20261;-80
2023/07/28 00:20:34;;;;;;;4.00;3.70;;;17.30;99.90;;;18.06;100.00;97229.63;10367539;28;20223;-79
2023/07/28 00:25:37;;;;;;;4.13;3.75;;;17.30;99.90;;;18.00;100.00;97222.66;10379663;28;20236;-80
2023/07/28 00:30:40;;;;;;;4.28;3.75;;;17.20;99.90;;;17.94;100.00;97222.53;10374843;28;20228;-81
2023/07/28 00:35:45;;;;;;;3.90;3.60;;;17.20;99.90;;;17.95;100.00;97221.69;10374709;28;20249;-80
2023/07/28 00:40:48;;;;;;;4.30;3.90;;;17.20;99.90;;;17.78;100.00;97226.56;10375402;28;20226;-81
2023/07/28 00:45:51;;;;;;;3.20;3.00;;;17.10;99.90;;;17.78;100.00;97215.34;10378216;28;20234;-81
2023/07/28 00:50:57;;;;;;;3.65;3.45;;;17.00;99.90;;;17.73;100.00;97222.97;10377389;28;20781;-80
2023/07/28 00:56:01;;;;;;;4.65;4.25;;;17.00;99.90;;;17.68;100.00;97203.91;10385022;28;20756;-80
2023/07/28 01:01:05;;;;;;;3.40;3.13;;;16.90;99.90;;;17.60;100.00;97212.38;10375145;28;20620;-80
2023/07/28 01:06:21;;;;;;;4.45;4.05;;;16.80;99.90;;;17.44;100.00;97206.91;10367636;28;20289;-79
2023/07/28 01:11:24;;;;;;;4.18;3.85;;;16.70;99.90;;;17.43;100.00;97207.75;10373200;28;20232;-80
2023/07/28 01:16:27;;;;;;;4.50;3.85;;;16.70;99.90;;;17.31;100.00;97212.66;10369963;28;20332;-81
2023/07/28 01:21:33;;;;;;;4.05;3.70;;;16.60;99.90;;;17.30;100.00;97221.28;10366266;28;20230;-81
2023/07/28 01:26:38;;;;;;;4.50;4.20;;;16.50;99.90;;;17.27;100.00;97216.91;10368869;28;20292;-80
2023/07/28 01:31:41;;;;;;;4.93;4.22;;;16.50;99.90;;;17.26;100.00;97209.16;10371473;28;20239;-79
2023/07/28 01:36:44;;;;;;;4.20;3.90;;;16.50;99.90;;;17.20;100.00;97204.72;10369046;28;20234;-79
2023/07/28 01:41:49;;;;;;;4.57;4.28;;;16.40;99.90;;;17.16;100.00;97200.31;10372392;28;20227;-79
2023/07/28 01:46:52;;;;;;;4.38;3.97;;;16.40;99.90;;;17.08;100.00;97200.19;10364389;28;20226;-80
2023/07/28 01:51:55;;;;;;;4.80;4.40;;;16.30;99.90;;;16.91;100.00;97190.31;10367113;28;20231;-80
2023/07/28 01:57:00;;;;;;;4.45;4.15;;;16.20;99.90;;;16.82;100.00;97186.69;10371854;28;20222;-81
2023/07/28 02:02:03;;;;;;;4.60;4.30;;;16.10;99.90;;;16.84;100.00;97181.56;10368958;28;20276;-81
2023/07/28 02:07:06;;;;;;;4.55;4.20;;;16.10;99.90;;;16.77;100.00;97187.44;10365309;28;20257;-81
2023/07/28 02:12:11;;;;;;;5.15;4.57;;;16.00;99.90;;;16.65;100.00;97188.91;10367966;28;20238;-82
2023/07/28 02:17:14;;;;;;;4.97;4.40;;;15.90;99.90;;;16.60;100.00;97187.06;10369222;28;20602;-81
2023/07/28 02:22:17;;;;;;;4.93;4.53;;;15.90;99.90;;;16.60;100.00;97185.34;10374236;28;20569;-79
2023/07/28 02:27:22;;;;;;;5.70;5.20;;;15.80;99.90;;;16.36;100.00;97171.88;10375075;28;20313;-82
2023/07/28 02:32:25;;;;;;;4.40;4.10;;;15.70;99.90;;;16.38;100.00;97171.06;10367006;28;20222;-79
2023/07/28 02:37:28;;;;;;;5.10;4.70;;;15.70;99.90;;;16.41;100.00;97171.13;10368564;28;20261;-79
2023/07/28 02:42:33;;;;;;;5.25;4.75;;;15.70;99.90;;;16.45;100.00;97172.06;10366565;28;20226;-79
2023/07/28 02:47:37;;;;;;;4.70;4.40;;;15.70;99.90;;;16.40;100.00;97176.28;10377975;28;20228;-83
2023/07/28 02:52:40;;;;;;;4.90;4.50;;;15.70;99.90;;;16.40;100.00;97179.72;10372285;28;20237;-81
2023/07/28 02:57:44;;;;;;;5.10;4.70;;;15.70;99.90;;;16.36;100.00;97189.91;10370011;28;20591;-80
2023/07/28 03:02:48;;;;;;;4.35;3.95;;;15.60;99.90;;;16.34;100.00;97191.59;10372883;28;20253;-82
2023/07/28 03:07:51;;;;;;;4.90;4.50;;;15.60;99.90;;;16.31;100.00;97217.31;10377448;28;20284;-81
2023/07/28 03:12:57;;;;;;;4.28;3.97;;;15.50;99.90;;;16.28;100.00;97214.66;10372640;28;20252;-82
2023/07/28 03:18:00;;;;;;;4.50;4.20;;;15.50;99.90;;;16.34;100.00;97222.53;10376255;28;20219;-80
2023/07/28 03:23:03;;;;;;;4.90;4.47;;;15.60;99.90;;;16.28;100.00;97222.38;10378905;28;20222;-79
2023/07/28 03:28:08;;;;;;;4.95;4.47;;;15.50;99.90;;;16.30;100.00;97234.50;10366949;28;20222;-82
2023/07/28 03:33:11;;;;;;;4.82;4.43;;;15.50;99.90;;;16.25;100.00;97243.81;10369537;28;20306;-81
2023/07/28 03:38:14;;;;;;;5.18;4.72;;;15.50;99.90;;;16.23;100.00;97244.63;10367559;28;20226;-81
2023/07/28 03:43:19;;;;;;;4.60;4.20;;;15.50;99.90;;;16.29;100.00;97261.13;10374916;28;20619;-80
2023/07/28 03:48:22;;;;;;;5.03;4.53;;;15.50;99.90;;;16.18;100.00;97263.44;10371475;28;20246;-82
2023/07/28 03:53:25;;;;;;;4.95;4.45;;;15.40;99.90;;;16.29;100.00;97262.84;10374052;28;20249;-81
2023/07/28 03:58:30;;;;;;;5.07;4.25;;;15.50;99.90;;;16.33;100.00;97267.22;10377922;28;20242;-81
2023/07/28 04:03:34;;;;;;;5.30;4.80;;;15.60;99.90;;;16.44;100.00;97268.38;10378480;28;20226;-80
2023/07/28 04:08:37;;;;;;;4.82;4.45;;;15.70;99.90;;;16.50;100.00;97291.72;10377017;28;20708;-79
2023/07/28 04:13:41;;;;;;;4.35;4.05;;;15.60;99.90;;;16.41;100.00;97286.34;10380527;28;20219;-81
2023/07/28 04:18:44;;;;;;;5.18;4.68;;;15.60;99.90;;;16.43;100.00;97295.00;10369970;28;20778;-81
2023/07/28 04:23:47;;;;;;;4.88;4.47;;;15.60;99.90;;;16.38;100.00;97297.47;10362477;28;20222;-79
2023/07/28 04:28:52;;;;;;;5.22;4.70;;;15.60;99.90;;;16.30;100.00;97288.66;10372329;28;20228;-80
2023/07/28 04:33:55;;;;;;;5.47;4.30;;;15.60;99.90;;;16.36;100.00;97277.63;10370714;28;20429;-79
2023/07/28 04:38:58;;;;;;;4.75;4.45;;;15.60;99.90;;;16.46;100.00;97271.88;10368261;28;20286;-80
2023/07/28 04:44:03;;;;;;;5.10;4.60;;;15.70;99.90;;;16.58;100.00;97274.72;10363619;28;20232;-80
2023/07/28 04:49:06;;;;;;;5.03;4.65;;;15.80;99.90;;;16.65;100.00;97275.75;10375108;28;20228;-79
2023/07/28 04:54:09;;;;;;;5.30;4.90;;;15.80;99.90;;;16.56;100.00;97265.22;10372044;28;20236;-81
2023/07/28 04:59:14;;;;;;;4.43;4.03;;;15.80;99.90;;;16.62;100.00;97273.94;10373779;28;20249;-80
2023/07/28 05:04:17;;;;;;;5.20;4.80;;;15.90;99.90;;;16.66;100.00;97283.53;10379977;28;20258;-82
2023/07/28 05:09:20;;;;;;;4.68;4.28;;;16.00;99.90;;;16.69;100.00;97277.56;10380239;28;20230;-80
2023/07/28 05:14:24;;;;;;;5.68;5.13;;;16.00;99.90;;;16.70;100.00;97268.97;10375763;28;20342;-81
2023/07/28 05:19:28;;;;;;;5.68;5.13;;;16.10;99.90;;;16.73;100.00;97276.78;10363614;28;20639;-79
2023/07/28 05:24:31;;;;;;;5.45;5.05;;;16.10;99.90;;;16.69;100.00;97266.38;10369876;28;20262;-80
2023/07/28 05:29:35;;;;;;;5.43;4.93;;;16.10;99.90;;;16.57;100.00;97278.16;10366723;28;20230;-83
2023/07/28 05:34:39;;;;;;;5.25;4.85;;;16.10;99.90;;;16.55;100.00;97284.97;10367738;28;20225;-83
2023/07/28 05:39:45;;;;;;;5.88;5.38;;;16.00;99.90;;;16.59;100.00;97289.38;10366608;28;20255;-83
2023/07/28 05:44:54;;;;;;;5.60;5.13;;;16.10;99.90;;;16.71;100.00;97287.91;10365635;28;20238;-84
2023/07/28 05:50:00;;;;;;;6.60;6.00;;;16.20;99.90;;;16.72;100.00;97287.97;10365327;28;20695;-83
2023/07/28 05:55:08;;;;;;;6.55;5.32;;;16.20;99.90;;;16.65;100.00;97302.44;10369539;28;20290;-82
2023/07/28 06:00:17;;;;;;;5.88;5.47;;;16.20;99.90;;;16.63;100.00;97304.09;10370680;28;20234;-84
2023/07/28 06:05:21;;;;;;;5.75;5.25;;;16.10;99.90;;;16.64;100.00;97311.00;10368712;28;20284;-81
2023/07/28 06:10:24;;;;;;;7.35;6.45;;;16.20;99.90;;;16.85;100.00;97314.97;10367375;28;20474;-83
2023/07/28 06:15:31;;;;;;;7.30;6.60;;;16.30;99.90;;;16.95;100.00;97313.47;10366953;28;20234;-82
2023/07/28 06:20:38;;;;;;;7.75;6.50;;;16.40;99.90;;;16.95;100.00;97323.81;10362513;28;20219;-82
2023/07/28 06:25:43;;;;;;;8.45;7.60;;;16.40;99.90;;;17.05;100.00;97324.06;10367498;28;20244;-83
2023/07/28 06:30:48;;;;;;;7.90;7.10;;;16.50;99.90;;;17.03;100.00;97327.44;10373271;28;20245;-82
2023/07/28 06:35:52;;;;;;;7.43;6.72;;;16.50;99.90;;;17.08;100.00;97328.41;10370073;28;20222;-83
2023/07/28 06:40:56;;;;;;;7.53;6.78;;;16.60;99.90;;;17.19;100.00;97337.25;10370178;28;20233;-82
2023/07/28 06:46:01;;;;;;;7.32;6.72;;;16.70;99.90;;;17.24;100.00;97348.59;10373308;28;20222;-81
2023/07/28 06:51:04;;;;;;;7.15;6.40;;;16.70;99.90;;;17.26;100.00;97352.06;10373309;28;20222;-82
2023/07/28 06:56:07;;;;;;;7.40;6.80;;;16.80;99.90;;;17.34;100.00;97352.25;10365480;28;20241;-82
2023/07/28 07:01:12;;;;;;;7.38;6.68;;;16.80;99.90;;;17.44;100.00;97354.19;10363807;28;20249;-82
2023/07/28 07:06:16;;;;;;;7.72;6.97;;;17.00;99.90;;;17.49;100.00;97362.06;10358270;28;20230;-82
2023/07/28 07:11:20;;;;;;;7.10;6.43;;;17.00;99.90;;;17.51;100.00;97373.28;10369503;28;20304;-80
2023/07/28 07:16:25;;;;;;;8.05;7.35;;;17.00;99.90;;;17.64;100.00;97372.72;10371247;28;20234;-81
2023/07/28 07:21:29;;;;;;;8.65;7.15;;;17.20;99.90;;;17.85;100.00;97376.63;10373069;28;20273;-83
2023/07/28 07:26:35;;;;;;;7.97;7.20;;;17.30;99.90;;;17.89;100.00;97378.44;10373786;28;20230;-82
2023/07/28 07:31:40;;;;;;;7.55;6.72;;;17.30;99.90;;;17.86;100.00;97374.06;10364019;28;20218;-82
2023/07/28 07:36:50;;;;;;;7.93;6.93;;;17.30;99.90;;;17.96;100.00;97386.34;10374258;28;20215;-81
2023/07/28 07:41:53;;;;;;;8.90;7.07;;;17.40;99.90;;;18.11;100.00;97384.91;10365811;28;20240;-84
2023/07/28 07:47:01;;;;;;;7.90;7.05;;;17.60;99.90;;;18.24;100.00;97397.25;10362607;28;20710;-81
2023/07/28 07:52:07;;;;;;;7.60;6.20;;;17.70;99.90;;;18.56;100.00;97402.16;10372261;28;20237;-82
2023/07/28 07:57:10;;;;;;;6.38;5.82;;;17.90;99.90;;;18.98;100.00;97393.41;10375675;28;20222;-83
2023/07/28 08:02:15;;;;;;;6.85;6.25;;;18.30;99.90;;;19.27;100.00;97393.88;10373156;28;20261;-81
2023/07/28 08:07:18;;;;;;;6.95;5.80;;;18.60;99.90;;;19.52;100.00;97397.72;10360461;28;20241;-81
2023/07/28 08:12:22;;;;;;;7.20;6.43;;;18.70;99.90;;;19.45;100.00;97388.09;10355207;28;20258;-79
2023/07/28 08:17:27;;;;;;;6.88;6.28;;;18.80;99.90;;;19.71;100.00;97394.53;10369834;28;20251;-82
2023/07/28 08:22:30;;;;;;;6.47;5.57;;;19.00;99.90;;;19.91;100.00;97393.94;10379839;28;20222;-81
2023/07/28 08:27:33;;;;;;;6.07;5.55;;;19.30;99.90;;;20.24;100.00;97396.06;10381965;28;20234;-81
2023/07/28 08:32:38;;;;;;;6.15;5.57;;;19.40;99.90;;;20.09;100.00;97409.75;10369681;28;20218;-82
2023/07/28 08:37:41;;;;;;;7.47;6.75;;;19.40;99.90;;;20.01;100.00;97413.97;10372674;28;20235;-81
2023/07/28 08:42:45;;;;;;;7.28;6.65;;;19.30;99.90;;;19.73;100.00;97423.97;10370240;28;20708;-82
2023/07/28 08:47:50;;;;;;;7.10;6.40;;;19.10;99.90;;;19.68;100.00;97422.16;10386499;28;20233;-80
2023/07/28 08:52:54;;;;;;;7.00;6.38;;;19.00;99.90;;;19.75;100.00;97424.84;10387770;28;20280;-81
2023/07/28 08:57:57;;;;;;;6.90;6.30;;;19.10;99.90;;;19.95;100.00;97429.44;10369638;28;20229;-82
2023/07/28 09:03:01;;;;;;;6.07;5.57;;;19.20;99.90;;;20.21;100.00;97430.63;10377751;28;20364;-81
2023/07/28 09:08:05;;;;;;;6.03;5.43;;;19.50;99.90;;;20.41;100.00;97432.59;10380029;28;20231;-80
2023/07/28 09:13:11;;;;;;;7.00;6.40;;;19.70;99.90;;;20.83;100.00;97437.41;10374565;28;20230;-81
2023/07/28 09:18:20;;;;;;;7.18;6.47;;;20.00;99.90;;;20.96;100.00;97441.00;10381771;28;20222;-81
2023/07/28 09:23:30;;;;;;;6.28;5.78;;;20.10;99.90;;;20.89;100.00;97447.88;10377378;28;20222;-81
2023/07/28 09:28:41;;;;;;;6.05;5.45;;;20.10;99.90;;;20.91;100.00;97453.06;10372549;28;20612;-81
2023/07/28 09:33:46;;;;;;;5.40;4.82;;;20.20;99.90;;;21.02;100.00;97448.84;10378051;28;20366;-81
2023/07/28 09:38:51;;;;;;;5.30;4.80;;;20.30;99.90;;;21.39;98.91;97441.38;10379711;28;20711;-82
2023/07/28 09:43:54;;;;;;;4.97;4.57;;;20.50;99.90;;;21.62;96.55;97451.09;10377180;28;20239;-81
2023/07/28 09:49:01;;;;;;;5.15;4.75;;;20.70;99.90;;;21.89;96.65;97443.47;10377772;28;20309;-82
2023/07/28 09:54:14;;;;;;;4.50;4.18;;;21.00;99.90;;;21.97;91.72;97441.75;10376392;28;20227;-82
2023/07/28 09:59:19;;;;;;;4.10;3.80;;;21.30;99.90;;;22.21;91.30;97435.84;10382001;28;20229;-83
2023/07/28 10:04:24;;;;;;;4.30;4.00;;;21.50;99.90;;;22.38;90.05;97438.50;10375105;28;21280;-82
2023/07/28 10:09:29;;;;;;;5.35;3.65;;;21.60;99.90;;;22.66;86.76;97438.56;10383902;28;20229;-81
2023/07/28 10:14:37;;;;;;;4.07;3.78;;;21.90;99.90;;;22.78;86.00;97443.81;10375357;28;20534;-82
2023/07/28 10:19:43;;;;;;;3.80;3.50;;;22.10;99.90;;;23.15;80.86;97441.31;10374479;28;20254;-82
2023/07/28 10:24:53;;;;;;;3.92;3.53;;;22.60;99.90;;;22.99;83.41;97457.78;10376372;28;20230;-81
2023/07/28 10:30:01;;;;;;;3.70;3.50;;;22.20;99.90;;;23.08;81.96;97447.38;10377659;28;20226;-82
2023/07/28 10:35:10;;;;;;;3.45;3.17;;;22.20;99.90;;;23.10;83.46;97437.81;10379797;28;20265;-82
2023/07/28 10:40:30;;;;;;;4.93;3.63;;;22.30;99.90;;;23.41;80.59;97440.41;10362415;28;20409;-81
2023/07/28 10:45:34;;;;;;;3.40;3.10;;;22.80;99.90;;;23.89;80.50;97436.88;10370754;28;20229;-81
2023/07/28 10:50:38;;;;;;;3.88;3.58;;;23.20;99.90;;;24.42;76.29;97438.44;10369990;28;22448;-80
2023/07/28 10:55:42;;;;;;;3.25;2.95;;;23.70;99.90;;;24.83;73.16;97442.59;10365121;28;20226;-84
2023/07/28 11:00:45;;;;;;;3.58;3.28;;;24.00;99.90;;;25.07;69.39;97446.81;10365490;28;20236;-82
2023/07/28 11:05:51;;;;;;;3.28;3.00;;;24.30;99.90;;;25.20;70.62;97441.53;10368492;28;20234;-81
2023/07/28 11:10:55;;;;;;;3.35;3.08;;;24.50;99.90;;;25.59;68.17;97441.19;10371142;28;20649;-84
2023/07/28 11:15:59;;;;;;;3.00;2.80;;;24.80;99.90;;;25.39;67.78;97443.09;10359907;28;20254;-81
2023/07/28 11:21:03;;;;;;;3.10;2.83;;;24.60;99.90;;;25.35;66.55;97446.63;10362131;28;20228;-81
2023/07/28 11:26:11;;;;;;;3.05;2.80;;;24.30;99.90;;;25.15;68.29;97460.75;10360206;28;20994;-82
2023/07/28 11:31:14;;;;;;;3.47;3.00;;;24.00;99.90;;;24.84;68.55;97460.03;10363637;28;20585;-82
2023/07/28 11:36:24;;;;;;;3.17;2.95;;;23.80;99.90;;;24.50;73.14;97452.38;10367362;28;20225;-80
2023/07/28 11:41:28;;;;;;;3.08;2.78;;;23.60;99.90;;;24.63;71.01;97445.34;10366933;28;20226;-80
2023/07/28 11:46:37;;;;;;;4.03;3.40;;;23.70;99.90;;;24.59;72.25;97453.22;10368272;28;20606;-81
2023/07/28 11:51:45;;;;;;;3.05;2.78;;;23.60;99.90;;;24.53;73.07;97448.88;10365963;28;20222;-80
2023/07/28 11:56:49;;;;;;;2.70;2.50;;;23.50;99.90;;;24.63;71.81;97457.53;10356138;28;20223;-81
2023/07/28 12:01:57;;;;;;;3.08;2.53;;;23.60;99.90;;;24.60;70.57;97450.56;10364802;28;20258;-80
2023/07/28 12:07:11;;;;;;;3.53;2.78;;;23.70;99.90;;;24.66;69.26;97455.75;10365445;28;20226;-81
2023/07/28 12:12:16;;;;;;;2.50;2.30;;;23.80;99.90;;;24.87;68.56;97453.94;10372118;28;20664;-81
2023/07/28 12:17:25;;;;;;;2.40;2.20;;;23.90;99.90;;;24.81;67.39;97452.22;10364279;28;20231;-82
2023/07/28 12:22:50;;;;;;;2.17;2.00;;;23.80;99.90;;;24.61;68.48;97457.56;10372068;28;20240;-81
2023/07/28 12:27:53;;;;;;;2.30;2.10;;;23.60;99.90;;;24.42;69.96;97451.50;10371363;28;20769;-81
2023/07/28 12:32:56;;;;;;;2.00;1.83;;;23.50;99.90;;;24.21;70.14;97444.63;10363918;28;20289;-81
2023/07/28 12:38:06;;;;;;;1.88;1.77;;;23.30;99.90;;;24.01;69.85;97442.09;10363617;28;20228;-81
2023/07/28 12:43:12;;;;;;;2.15;2.05;;;23.20;99.90;;;24.17;71.30;97444.63;10368011;28;20240;-81
2023/07/28 12:48:35;;;;;;;2.67;2.20;;;23.30;99.90;;;24.36;70.54;97453.28;10370054;28;20226;-81
2023/07/28 12:53:51;;;;;;;2.05;1.95;;;23.40;99.90;;;24.20;74.88;97458.56;10372870;28;20257;-80
2023/07/28 12:58:55;;;;;;;2.45;2.25;;;23.20;99.90;;;24.09;75.38;97457.72;10364773;28;20226;-80
2023/07/28 13:04:01;;;;;;;2.95;2.75;;;23.30;99.90;;;23.78;79.86;97462.16;10372140;28;20230;-81
2023/07/28 13:09:05;;;;;;;2.97;2.78;;;23.10;99.90;;;23.83;78.83;97465.63;10366430;28;20746;-80
2023/07/28 13:14:12;;;;;;;4.45;2.95;;;23.10;99.90;;;23.88;80.49;97457.78;10378253;28;20238;-81
2023/07/28 13:19:15;;;;;;;2.85;2.65;;;23.00;99.90;;;23.67;77.55;97467.38;10376675;28;20242;-83
2023/07/28 13:24:20;;;;;;;3.10;2.80;;;22.80;99.90;;;23.47;79.68;97466.53;10380688;28;20667;-82
2023/07/28 13:29:23;;;;;;;3.08;2.70;;;22.60;99.90;;;23.44;81.49;97461.31;10384901;28;20298;-82
2023/07/28 13:34:26;;;;;;;3.45;3.15;;;22.60;99.90;;;23.46;80.49;97465.63;10377909;28;20237;-80
2023/07/28 13:39:30;;;;;;;3.13;2.38;;;22.60;99.90;;;23.33;80.02;97464.78;10383355;28;20718;-82
2023/07/28 13:44:34;;;;;;;2.78;2.53;;;22.50;99.90;;;23.30;80.39;97463.91;10388259;28;20232;-82
2023/07/28 13:49:37;;;;;;;2.72;2.53;;;22.40;99.90;;;23.26;81.21;97473.44;10387601;28;20225;-80
2023/07/28 13:54:55;;;;;;;2.65;2.45;;;22.40;99.90;;;22.98;84.20;97471.69;10384939;28;20265;-81
2023/07/28 14:00:01;;;;;;;2.30;2.20;;;22.20;99.90;;;22.55;88.44;97472.44;10381056;28;20241;-83
2023/07/28 14:05:05;;;;;;;3.75;2.90;;;21.90;99.90;;;22.07;95.95;97468.72;10379325;28;20258;-81
2023/07/28 14:10:10;;;;;;;3.95;3.30;;;21.60;99.90;;;21.53;100.00;97491.78;10393353;28;20222;-81
2023/07/28 14:15:13;;;;;;;3.65;3.33;;;21.20;99.90;;;21.14;100.00;97493.13;10377788;28;20317;-81
2023/07/28 14:20:17;;;;;;;3.75;3.45;;;20.80;99.90;;;20.98;100.00;97496.47;10375652;28;20229;-83
2023/07/28 14:25:22;;;;;;;3.67;3.38;;;20.60;99.90;;;20.84;100.00;97504.09;10380584;28;20308;-81
2023/07/28 14:30:25;;;;;;;4.10;3.70;;;20.50;99.90;;;20.77;100.00;97507.47;10370886;28;20589;-82
2023/07/28 14:35:28;;;;;;;3.85;3.55;;;20.40;99.90;;;20.75;100.00;97490.16;10369762;28;20245;-82
2023/07/28 14:40:33;;;;;;;5.05;3.80;;;20.30;99.90;;;20.76;100.00;97469.38;10369620;28;20222;-82
2023/07/28 14:45:36;;;;;;;3.63;3.33;;;20.30;99.90;;;20.57;100.00;97468.28;10374292;28;20230;-82
2023/07/28 14:50:39;;;;;;;4.80;4.35;;;20.10;99.90;;;20.51;100.00;97483.78;10371242;28;20227;-82
2023/07/28 14:55:44;;;;;;;4.05;3.65;;;20.10;99.90;;;20.53;100.00;97455.28;10377458;28;20254;-82
2023/07/28 15:00:47;;;;;;;4.53;3.90;;;20.10;99.90;;;20.42;100.00;97468.09;10358601;28;20661;-82
2023/07/28 15:05:50;;;;;;;4.82;3.95;;;20.00;99.90;;;20.41;100.00;97467.22;10371791;28;20246;-82
2023/07/28 15:10:57;;;;;;;4.63;4.20;;;20.10;99.90;;;20.47;100.00;97471.63;10374542;28;20230;-82
2023/07/28 15:16:01;;;;;;;4.63;4.18;;;20.10;99.90;;;20.59;100.00;97483.91;10370063;28;20811;-81
2023/07/28 15:21:04;;;;;;;7.60;4.70;;;20.20;99.90;;;20.64;100.00;97496.09;10374248;28;20249;-81
2023/07/28 15:26:08;;;;;;;5.95;5.45;;;20.20;99.90;;;20.75;100.00;97488.41;10370492;28;20232;-84
2023/07/28 15:31:12;;;;;;;5.50;4.70;;;20.30;99.90;;;20.69;100.00;97504.81;10375009;28;20226;-81
2023/07/28 15:36:15;;;;;;;4.70;4.05;;;20.20;99.90;;;20.67;100.00;97503.03;10381317;28;20218;-81
2023/07/28 15:41:19;;;;;;;3.80;3.47;;;20.20;99.90;;;20.60;100.00;97503.81;10388633;28;20258;-81
2023/07/28 15:46:23;;;;;;;3.47;3.20;;;20.00;99.90;;;20.53;100.00;97502.88;10379989;28;20273;-81
2023/07/28 15:51:26;;;;;;;4.68;4.28;;;20.00;99.90;;;20.55;100.00;97501.19;10383610;28;20225;-81
2023/07/28 15:56:31;;;;;;;5.57;4.05;;;20.00;99.90;;;20.73;100.00;97499.66;10379619;28;20282;-81
2023/07/28 16:01:34;;;;;;;4.70;4.25;;;20.10;99.90;;;20.77;100.00;97496.22;10380372;28;20250;-80
2023/07/28 16:06:38;;;;;;;4.53;4.13;;;20.20;99.90;;;20.91;100.00;97479.91;10389441;28;20230;-81
2023/07/28 16:11:42;;;;;;;4.32;4.03;;;20.20;99.90;;;20.81;100.00;97483.28;10382064;28;20291;-80
2023/07/28 16:16:46;;;;;;;4.40;4.10;;;20.20;99.90;;;20.91;100.00;97484.25;10365026;28;20313;-81
2023/07/28 16:21:50;;;;;;;4.25;3.88;;;20.20;99.90;;;20.82;100.00;97486.75;10381201;28;20286;-80
2023/07/28 16:26:54;;;;;;;4.60;4.20;;;20.20;99.90;;;20.62;100.00;97484.81;10389569;28;20221;-81
2023/07/28 16:31:58;;;;;;;4.57;4.18;;;20.10;99.90;;;20.52;100.00;97479.44;10392607;28;20264;-80
2023/07/28 16:37:01;;;;;;;4.60;4.20;;;20.00;99.90;;;20.40;100.00;97493.16;10382567;28;20594;-80
2023/07/28 16:42:08;;;;;;;4.65;4.25;;;19.90;99.90;;;20.44;100.00;97492.34;10378655;28;20329;-80
2023/07/28 16:47:11;;;;;;;4.82;4.35;;;19.90;99.90;;;20.46;100.00;97485.47;10372854;28;20250;-85
2023/07/28 16:52:14;;;;;;;4.55;4.15;;;19.90;99.90;;;20.45;100.00;97486.28;10374390;28;20250;-83
2023/07/28 16:57:19;;;;;;;5.93;4.30;;;19.90;99.90;;;20.40;100.00;97485.38;10378504;28;20249;-83
2023/07/28 17:02:22;;;;;;;4.95;4.55;;;19.90;99.90;;;20.31;100.00;97486.13;10384815;28;20230;-80
2023/07/28 17:07:25;;;;;;;4.35;4.00;;;19.90;99.90;;;20.36;100.00;97479.28;10382813;28;20226;-80
2023/07/28 17:12:30;;;;;;;4.90;4.40;;;19.90;99.90;;;20.34;100.00;97482.69;10380209;28;20253;-81
2023/07/28 17:17:33;;;;;;;5.63;4.90;;;19.90;99.90;;;20.37;100.00;97483.59;10368543;28;20290;-81
2023/07/28 17:22:36;;;;;;;5.38;4.90;;;19.90;99.90;;;20.32;100.00;97477.50;10375535;28;20272;-83
2023/07/28 17:27:41;;;;;;;5.63;5.18;;;19.90;99.90;;;20.35;100.00;97487.91;10374762;28;20241;-81
2023/07/28 17:32:45;;;;;;;5.75;5.15;;;19.90;99.90;;;20.35;100.00;97492.25;10373295;28;20223;-81
2023/07/28 17:37:49;;;;;;;5.82;5.28;;;19.80;99.90;;;20.35;100.00;97494.84;10367541;28;20253;-82
2023/07/28 17:42:54;;;;;;;6.20;5.70;;;19.80;99.90;;;20.42;100.00;97486.25;10368937;28;20226;-80
2023/07/28 17:47:57;;;;;;;5.70;5.30;;;19.80;99.90;;;20.40;100.00;97482.75;10364674;28;20227;-80
2023/07/28 17:53:00;;;;;;;5.47;5.07;;;19.80;99.90;;;20.38;100.00;97474.13;10370202;28;20662;-81
2023/07/28 17:58:05;;;;;;;6.80;6.20;;;19.90;99.90;;;20.38;100.00;97474.13;10361034;28;20253;-81
2023/07/28 18:03:08;;;;;;;6.10;5.60;;;19.90;99.90;;;20.40;100.00;97480.16;10370485;28;20241;-80
2023/07/28 18:08:12;;;;;;;6.72;6.13;;;19.80;99.90;;;20.46;100.00;97482.88;10364644;28;20298;-82
2023/07/28 18:13:16;;;;;;;7.35;6.63;;;19.90;99.90;;;20.32;100.00;97484.44;10370812;28;20738;-81
2023/07/28 18:18:20;;;;;;;5.70;5.30;;;19.80;99.90;;;20.29;100.00;97487.84;10366094;28;20284;-81
2023/07/28 18:23:23;;;;;;;6.10;5.60;;;19.70;99.90;;;20.25;100.00;97491.25;10363674;28;20226;-81
2023/07/28 18:28:28;;;;;;;7.10;6.40;;;19.70;99.90;;;20.16;100.00;97483.34;10370605;28;20236;-81
2023/07/28 18:33:32;;;;;;;6.53;5.90;;;19.60;99.90;;;20.17;100.00;97490.25;10372277;28;20235;-79
2023/07/28 18:38:35;;;;;;;7.05;6.40;;;19.60;99.90;;;20.16;100.00;97502.38;10366950;28;20249;-80
2023/07/28 18:43:39;;;;;;;5.95;5.32;;;19.60;99.90;;;20.11;100.00;97497.97;10368817;28;20256;-81
2023/07/28 18:48:42;;;;;;;6.60;6.00;;;19.60;99.90;;;20.09;100.00;97497.97;10368170;28;20234;-79
2023/07/28 18:53:46;;;;;;;5.50;4.97;;;19.50;99.90;;;20.09;100.00;97503.16;10369783;28;20231;-80
2023/07/28 18:58:50;;;;;;;6.00;5.50;;;19.50;99.90;;;20.08;100.00;97509.19;10361999;28;20230;-81
2023/07/28 19:03:53;;;;;;;6.47;5.97;;;19.50;99.90;;;20.10;100.00;97515.28;10376306;28;20301;-80
2023/07/28 19:08:57;;;;;;;7.22;6.60;;;19.50;99.90;;;20.09;100.00;97536.00;10360701;28;20768;-79
2023/07/28 19:14:01;;;;;;;8.75;6.13;;;19.50;99.90;;;20.09;100.00;97538.59;10373790;28;20230;-79
2023/07/28 19:19:04;;;;;;;6.45;5.95;;;19.50;99.90;;;20.05;100.00;97540.28;10375221;28;20333;-80
2023/07/28 19:24:07;;;;;;;8.55;7.80;;;19.50;99.90;;;19.95;100.00;97548.78;10369307;28;20242;-81
2023/07/28 19:29:14;;;;;;;8.85;8.05;;;19.40;99.90;;;19.90;100.00;97551.31;10374603;28;20234;-79
2023/07/28 19:34:18;;;;;;;7.10;6.50;;;19.30;99.90;;;19.86;100.00;97559.91;10391443;28;20238;-81
2023/07/28 19:39:21;;;;;;;8.05;7.28;;;19.20;99.90;;;19.84;100.00;97566.78;10384939;28;20230;-80
2023/07/28 19:44:25;;;;;;;8.10;7.40;;;19.20;99.90;;;19.78;100.00;97557.19;10387810;28;20227;-82
2023/07/28 19:49:43;;;;;;;6.75;6.05;;;19.10;99.90;;;19.77;100.00;97560.63;10385687;28;20222;-79
2023/07/28 19:54:50;;;;;;;6.72;6.20;;;19.10;99.90;;;19.78;100.00;97572.75;10383818;28;20243;-80
2023/07/28 19:59:55;;;;;;;7.88;7.18;;;19.10;99.90;;;19.78;100.00;97590.91;10389170;28;20222;-81
2023/07/28 20:04:58;;;;;;;7.80;7.10;;;19.20;99.90;;;19.80;100.00;97590.91;10384009;28;20231;-81
2023/07/28 20:10:02;;;;;;;8.23;7.43;;;19.10;99.90;;;19.73;100.00;97595.13;10394236;28;20226;-82
2023/07/28 20:15:09;;;;;;;8.98;8.10;;;19.10;99.90;;;19.81;100.00;97590.06;10394359;28;20691;-81
2023/07/28 20:20:13;;;;;;;8.75;7.95;;;19.10;99.90;;;19.71;100.00;97591.63;10390213;28;20235;-80
2023/07/28 20:25:16;;;;;;;8.68;7.97;;;19.10;99.90;;;19.83;100.00;97584.91;10397686;28;20669;-80
2023/07/28 20:30:20;;;;;;;8.68;7.72;;;19.10;99.90;;;19.69;100.00;97595.94;10388489;28;20321;-81
2023/07/28 20:35:24;;;;;;;8.68;7.88;;;19.00;99.90;;;19.63;100.00;97587.13;10388884;28;20302;-82
2023/07/28 20:40:28;;;;;;;8.35;7.65;;;19.00;99.90;;;19.60;100.00;97577.56;10398950;28;20255;-81
2023/07/28 20:45:32;;;;;;;8.70;7.80;;;19.00;99.90;;;19.55;100.00;97571.47;10393798;28;20256;-81
2023/07/28 20:50:36;;;;;;;9.63;8.68;;;18.90;99.90;;;19.50;100.00;97575.69;10387341;28;20295;-81
2023/07/28 20:55:39;;;;;;;7.95;7.22;;;18.80;99.90;;;19.40;100.00;97572.06;10394487;28;20234;-81